Time;durP1;ratioP1;P1;durP2;ratioP2;P2;SDS_P1;SDS_P2;PMS_P1;PMS_P2;Temp;Humidity;BMP_temperature;BMP_pressure;BME280_temperature;BME280_humidity;BME280_pressure;Samples;Min_cycle;Max_cycle;Signal;HPM_P1;HPM_P2
2021/06/27 00:00:14;;;;;;;19.00;13.95;;;;;;;17.87;75.46;99895.88;5097399;28;20506;-52
2021/06/27 00:03:00;;;;;;;14.27;12.88;;;;;;;17.80;75.65;99895.34;5098181;28;20055;-52
2021/06/27 00:05:26;;;;;;;13.63;12.23;;;;;;;17.83;75.72;99894.34;5097400;28;20036;-52
2021/06/27 00:07:52;;;;;;;15.27;13.05;;;;;;;17.81;75.94;99898.84;5097501;28;20110;-52
2021/06/27 00:10:24;;;;;;;16.05;14.35;;;;;;;17.80;75.70;99894.50;5097264;28;20043;-52
2021/06/27 00:12:49;;;;;;;15.68;14.07;;;;;;;17.78;75.93;99888.41;5095680;28;20044;-52
2021/06/27 00:15:21;;;;;;;20.17;13.98;;;;;;;17.80;75.83;99894.50;5096848;28;20047;-52
2021/06/27 00:17:47;;;;;;;14.43;12.95;;;;;;;17.78;75.96;99893.72;5097885;28;20048;-52
2021/06/27 00:20:16;;;;;;;14.65;13.00;;;;;;;17.78;76.11;99899.00;5097079;28;20043;-52
2021/06/27 00:22:41;;;;;;;14.38;12.50;;;;;;;17.75;76.21;99900.88;5097213;28;20044;-52
2021/06/27 00:25:08;;;;;;;14.57;13.07;;;;;;;17.76;76.31;99893.78;5097735;28;20059;-52
2021/06/27 00:27:34;;;;;;;14.48;12.07;;;;;;;17.75;76.85;99897.38;5096831;28;20078;-52
2021/06/27 00:30:00;;;;;;;13.75;11.73;;;;;;;17.75;77.22;99892.94;5096834;28;20476;-52
2021/06/27 00:32:26;;;;;;;12.85;11.40;;;;;;;17.75;77.21;99895.56;5097055;28;20386;-52
2021/06/27 00:34:52;;;;;;;12.35;10.90;;;;;;;17.76;77.50;99891.13;5097125;28;20059;-52
2021/06/27 00:37:18;;;;;;;15.02;11.82;;;;;;;17.77;77.44;99890.22;5097026;28;20052;-52
2021/06/27 00:39:44;;;;;;;13.45;10.48;;;;;;;17.78;77.29;99888.41;5095831;28;20420;-52
2021/06/27 00:42:10;;;;;;;13.32;11.50;;;;;;;17.79;77.51;99888.34;5096300;28;20044;-52
2021/06/27 00:44:35;;;;;;;12.18;10.98;;;;;;;17.80;77.52;99899.78;5096897;28;20044;-52
2021/06/27 00:47:01;;;;;;;13.13;11.70;;;;;;;17.82;77.58;99906.72;5096609;28;20093;-52
2021/06/27 00:49:27;;;;;;;14.30;12.10;;;;;;;17.84;77.46;99910.16;5096867;28;20055;-52
2021/06/27 00:51:53;;;;;;;15.18;12.20;;;;;;;17.87;77.38;99914.41;5096686;28;20044;-52
2021/06/27 00:54:19;;;;;;;13.48;12.02;;;;;;;17.88;77.63;99910.84;5096455;28;20451;-52
2021/06/27 00:56:45;;;;;;;13.68;11.85;;;;;;;17.90;77.59;99914.25;5095491;28;20429;-52
2021/06/27 00:59:12;;;;;;;14.30;12.80;;;;;;;17.90;77.71;99912.47;5079096;28;20052;-52
2021/06/27 01:01:38;;;;;;;18.50;14.63;;;;;;;17.91;77.88;99910.69;5096637;28;20083;-52
2021/06/27 01:04:04;;;;;;;15.55;12.93;;;;;;;17.93;78.08;99906.16;5112614;28;20436;-52
2021/06/27 01:06:30;;;;;;;14.73;12.48;;;;;;;17.93;78.06;99900.84;5096321;28;20055;-52
2021/06/27 01:08:55;;;;;;;13.10;11.80;;;;;;;17.94;78.36;99900.78;5096556;28;20075;-52
2021/06/27 01:11:21;;;;;;;17.50;12.52;;;;;;;17.95;78.28;99894.53;5096113;28;20105;-52
2021/06/27 01:13:47;;;;;;;19.67;15.02;;;;;;;17.92;78.65;99888.53;5096501;28;20040;-52
2021/06/27 01:16:13;;;;;;;15.50;13.88;;;;;;;17.95;78.84;99901.63;5079562;28;20052;-52
2021/06/27 01:18:39;;;;;;;21.25;17.88;;;;;;;17.97;78.75;99902.38;5096705;28;20380;-52
2021/06/27 01:21:07;;;;;;;22.38;19.15;;;;;;;17.97;78.58;99897.97;5096380;28;20069;-52
2021/06/27 01:23:33;;;;;;;24.35;19.65;;;;;;;17.95;78.92;99909.56;5096137;28;20178;-52
2021/06/27 01:25:59;;;;;;;26.08;22.35;;;;;;;17.93;79.00;99908.78;5096318;28;20048;-52
2021/06/27 01:28:25;;;;;;;24.55;19.75;;;;;;;17.93;79.08;99899.03;5095898;28;20056;-52
2021/06/27 01:30:50;;;;;;;28.83;23.13;;;;;;;17.93;79.01;99901.69;5096768;28;20436;-52
2021/06/27 01:33:18;;;;;;;31.85;26.77;;;;;;;17.95;79.04;99906.94;5095909;28;20047;-52
2021/06/27 01:35:44;;;;;;;37.63;26.35;;;;;;;17.92;79.11;99897.34;5095981;28;20074;-52
2021/06/27 01:38:13;;;;;;;27.02;22.50;;;;;;;17.95;79.01;99897.19;5095946;28;20157;-52
2021/06/27 01:40:39;;;;;;;27.52;24.25;;;;;;;17.93;79.32;99895.53;5095892;28;20047;-52
2021/06/27 01:43:12;;;;;;;27.63;23.95;;;;;;;17.96;79.10;99903.34;5095951;28;20048;-52
2021/06/27 01:45:39;;;;;;;26.30;21.73;;;;;;;17.91;79.52;99905.38;5096230;28;20067;-52
2021/06/27 01:48:07;;;;;;;22.48;18.02;;;;;;;17.94;79.35;99898.13;5078596;28;20052;-52
2021/06/27 01:50:33;;;;;;;23.05;17.90;;;;;;;17.96;79.30;99898.88;5096059;28;20052;-52
2021/06/27 01:52:59;;;;;;;20.65;17.85;;;;;;;17.95;79.53;99899.84;5095747;28;20416;-52
2021/06/27 01:55:25;;;;;;;20.15;17.67;;;;;;;17.97;79.34;99899.72;5095981;28;20052;-52
2021/06/27 01:57:51;;;;;;;21.80;15.80;;;;;;;18.03;78.98;99903.84;5096036;28;20062;-52
2021/06/27 02:00:18;;;;;;;21.20;14.52;;;;;;;18.04;79.02;99903.78;5096048;28;20063;-52
2021/06/27 02:02:44;;;;;;;20.63;14.95;;;;;;;18.06;78.88;99901.03;5095719;28;20040;-52
2021/06/27 02:05:10;;;;;;;21.90;15.80;;;;;;;18.08;78.72;99899.19;5095970;28;20039;-52
2021/06/27 02:07:37;;;;;;;17.25;14.55;;;;;;;18.07;78.83;99895.69;5095704;28;20040;-52
2021/06/27 02:10:14;;;;;;;16.67;14.95;;;;;;;18.07;78.75;99890.38;5095918;28;20317;-52
2021/06/27 02:12:40;;;;;;;18.13;15.05;;;;;;;18.03;78.68;99888.81;5094870;28;20059;-52
2021/06/27 02:15:06;;;;;;;16.83;13.85;;;;;;;18.00;78.92;99894.28;5095894;28;20397;-52
2021/06/27 02:17:32;;;;;;;18.05;15.52;;;;;;;18.02;78.86;99892.41;5096362;28;20054;-52
2021/06/27 02:19:58;;;;;;;14.63;13.00;;;;;;;18.01;78.69;99896.00;5095767;28;20048;-52
2021/06/27 02:22:24;;;;;;;24.10;14.82;;;;;;;18.02;78.76;99895.06;5096210;28;20444;-52
2021/06/27 02:24:50;;;;;;;19.80;14.52;;;;;;;18.03;78.61;99890.59;5095783;28;20095;-52
2021/06/27 02:27:16;;;;;;;18.17;12.90;;;;;;;18.03;78.77;99891.44;5095649;28;20056;-52
2021/06/27 02:29:42;;;;;;;16.92;13.82;;;;;;;18.04;78.48;99887.03;5095753;28;20044;-52
2021/06/27 02:32:08;;;;;;;18.95;12.75;;;;;;;18.05;78.38;99886.94;5095359;28;20055;-52
2021/06/27 02:34:34;;;;;;;18.00;14.68;;;;;;;18.05;78.49;99888.75;5095882;28;20089;-52
2021/06/27 02:37:00;;;;;;;18.27;12.75;;;;;;;18.05;78.59;99884.28;5099105;28;20322;-52
2021/06/27 02:39:26;;;;;;;17.55;12.55;;;;;;;18.04;78.58;99885.25;5099318;28;20047;-52
2021/06/27 02:41:52;;;;;;;20.20;12.95;;;;;;;18.04;78.50;99882.59;5099527;28;20047;-52
2021/06/27 02:44:17;;;;;;;17.33;11.57;;;;;;;18.04;78.49;99889.69;5099226;28;20044;-52
2021/06/27 02:46:43;;;;;;;15.90;12.52;;;;;;;18.01;78.39;99884.56;5099158;28;20194;-52
2021/06/27 02:49:09;;;;;;;19.02;12.70;;;;;;;17.99;78.38;99889.91;5099136;28;20051;-52
2021/06/27 02:51:35;;;;;;;16.38;11.30;;;;;;;17.99;78.32;99892.56;5099017;28;20326;-52
2021/06/27 02:54:00;;;;;;;18.85;13.45;;;;;;;17.98;78.82;99890.88;5099019;28;20432;-52
2021/06/27 02:56:26;;;;;;;17.58;13.20;;;;;;;17.98;78.76;99893.53;5098768;28;20048;-52
2021/06/27 02:58:52;;;;;;;16.65;12.25;;;;;;;18.01;78.66;99898.66;5098938;28;20082;-52
2021/06/27 03:01:18;;;;;;;14.32;11.77;;;;;;;18.03;78.79;99890.59;5098413;28;20056;-52
2021/06/27 03:03:45;;;;;;;14.45;11.18;;;;;;;18.06;78.76;99891.28;5097945;28;20055;-52
2021/06/27 03:06:11;;;;;;;16.95;12.35;;;;;;;18.10;78.66;99891.97;5096610;28;20059;-52
2021/06/27 03:08:37;;;;;;;17.25;14.27;;;;;;;18.12;78.69;99895.41;5095850;28;20517;-52
2021/06/27 03:11:03;;;;;;;15.98;11.50;;;;;;;18.14;78.61;99886.44;5096878;28;20051;-52
2021/06/27 03:13:29;;;;;;;17.42;12.02;;;;;;;18.19;78.54;99888.81;5096485;28;20105;-52
2021/06/27 03:15:55;;;;;;;15.25;12.75;;;;;;;18.20;78.59;99879.97;5095469;28;20048;-52
2021/06/27 03:18:20;;;;;;;15.95;11.90;;;;;;;18.24;78.60;99876.19;5096934;28;20048;-52
2021/06/27 03:20:46;;;;;;;17.27;11.55;;;;;;;18.27;78.45;99877.81;5098001;28;20059;-52
2021/06/27 03:23:12;;;;;;;15.77;11.32;;;;;;;18.32;78.50;99875.75;5098179;28;20356;-52
2021/06/27 03:25:39;;;;;;;20.75;12.38;;;;;;;18.37;78.42;99873.72;5098665;28;20047;-52
2021/06/27 03:28:05;;;;;;;17.17;13.38;;;;;;;18.40;78.24;99873.53;5098169;28;20146;-52
2021/06/27 03:30:31;;;;;;;16.98;12.52;;;;;;;18.39;78.28;99859.44;5098343;28;20136;-52
2021/06/27 03:32:57;;;;;;;16.10;12.95;;;;;;;18.51;78.19;99864.97;5098167;28;20456;-52
2021/06/27 03:35:23;;;;;;;14.40;11.70;;;;;;;18.52;77.94;99864.00;5098764;28;20404;-52
2021/06/27 03:38:06;;;;;;;17.65;12.20;;;;;;;18.54;78.03;99870.09;5098178;28;20364;-52
2021/06/27 03:40:32;;;;;;;16.02;12.43;;;;;;;18.52;78.00;99874.63;5098177;28;20052;-52
2021/06/27 03:43:00;;;;;;;14.35;12.10;;;;;;;18.52;78.02;99877.28;5097783;28;20425;-52
2021/06/27 03:45:27;;;;;;;13.80;11.38;;;;;;;18.52;77.91;99880.78;5097659;28;20139;-52
2021/06/27 03:47:53;;;;;;;15.93;12.57;;;;;;;18.52;77.75;99874.63;5097122;28;20067;-53
2021/06/27 03:50:19;;;;;;;19.52;12.55;;;;;;;18.51;77.82;99876.41;5113702;28;20441;-52
2021/06/27 03:52:46;;;;;;;18.15;13.35;;;;;;;18.54;77.71;99880.69;5097557;28;20040;-52
2021/06/27 03:55:12;;;;;;;16.27;12.90;;;;;;;18.55;77.86;99874.44;5097832;28;20067;-52
2021/06/27 03:57:38;;;;;;;25.30;13.18;;;;;;;18.55;77.64;99872.66;5097468;28;20361;-52
2021/06/27 04:00:06;;;;;;;17.42;12.05;;;;;;;18.59;77.60;99871.56;5097452;28;20043;-52
2021/06/27 04:02:38;;;;;;;17.05;12.18;;;;;;;18.60;77.63;99870.59;5097709;28;20052;-52
2021/06/27 04:05:04;;;;;;;18.33;12.63;;;;;;;18.65;77.57;99875.63;5097631;28;20048;-52
2021/06/27 04:07:30;;;;;;;18.00;12.40;;;;;;;18.68;77.40;99875.44;5097564;28;20063;-52
2021/06/27 04:09:56;;;;;;;21.88;13.25;;;;;;;18.71;77.61;99875.28;5097230;28;20059;-52
2021/06/27 04:12:22;;;;;;;17.08;13.18;;;;;;;18.72;77.60;99868.16;5097702;28;20036;-52
2021/06/27 04:14:48;;;;;;;21.85;14.20;;;;;;;18.75;77.76;99870.69;5097763;28;20040;-52
2021/06/27 04:17:17;;;;;;;18.20;11.95;;;;;;;18.76;77.72;99867.09;5097436;28;20048;-52
2021/06/27 04:19:43;;;;;;;16.05;13.52;;;;;;;18.70;77.52;99852.34;5097358;28;20048;-52
2021/06/27 04:22:09;;;;;;;18.08;11.35;;;;;;;18.83;77.61;99861.34;5096446;28;20055;-52
2021/06/27 04:24:35;;;;;;;19.92;14.50;;;;;;;18.89;77.30;99862.78;5097317;28;20356;-52
2021/06/27 04:27:01;;;;;;;13.82;11.77;;;;;;;18.93;77.32;99866.97;5097000;28;20090;-52
2021/06/27 04:29:27;;;;;;;12.50;11.30;;;;;;;18.96;77.19;99864.13;5097475;28;20052;-52
2021/06/27 04:31:53;;;;;;;15.48;12.48;;;;;;;19.02;77.22;99854.97;5096832;28;20055;-52
2021/06/27 04:34:20;;;;;;;16.08;12.32;;;;;;;19.05;76.82;99868.06;5096911;28;20077;-52
2021/06/27 04:36:47;;;;;;;13.90;12.05;;;;;;;19.11;76.86;99862.38;5079810;28;20043;-52
2021/06/27 04:39:15;;;;;;;17.98;12.60;;;;;;;19.12;76.90;99864.09;5113046;28;20344;-52
2021/06/27 04:41:42;;;;;;;16.98;11.10;;;;;;;19.25;76.95;99865.06;5063120;28;20131;-52
2021/06/27 04:44:08;;;;;;;13.45;11.93;;;;;;;19.62;76.71;99870.78;5096710;28;20359;-52
2021/06/27 04:46:34;;;;;;;15.10;11.07;;;;;;;19.90;76.11;99875.28;5096912;28;20051;-53
2021/06/27 04:48:59;;;;;;;17.13;12.07;;;;;;;20.14;75.77;99874.69;5096590;28;20036;-52
2021/06/27 04:51:25;;;;;;;11.77;10.60;;;;;;;20.34;74.93;99871.59;5095990;28;20044;-52
2021/06/27 04:53:51;;;;;;;16.27;11.10;;;;;;;20.46;74.22;99872.63;5096396;28;20048;-52
2021/06/27 04:56:17;;;;;;;15.55;11.63;;;;;;;20.69;74.06;99869.31;5095539;28;20109;-52
2021/06/27 04:58:42;;;;;;;13.57;10.25;;;;;;;20.94;72.62;99875.69;5112250;28;20051;-52
2021/06/27 05:01:08;;;;;;;12.00;10.40;;;;;;;21.01;72.16;99875.19;5096649;28;20109;-52
2021/06/27 05:03:34;;;;;;;12.32;10.75;;;;;;;21.22;71.37;99880.00;5096610;28;20117;-53
2021/06/27 05:06:00;;;;;;;12.05;9.80;;;;;;;21.30;71.03;99876.81;5096630;28;20428;-52
2021/06/27 05:08:26;;;;;;;12.43;9.55;;;;;;;21.32;70.65;99875.78;5096308;28;20051;-53
2021/06/27 05:10:51;;;;;;;12.73;10.85;;;;;;;21.26;70.41;99878.84;5096806;28;20069;-53
2021/06/27 05:13:17;;;;;;;10.30;9.18;;;;;;;21.25;70.33;99882.44;5096414;28;20078;-53
2021/06/27 05:15:43;;;;;;;14.18;10.55;;;;;;;21.39;70.11;99882.41;5096501;28;20040;-53
2021/06/27 05:18:09;;;;;;;10.02;8.90;;;;;;;21.53;69.52;99872.59;5096443;28;20051;-53
2021/06/27 05:20:34;;;;;;;13.35;10.52;;;;;;;21.63;69.31;99871.84;5096115;28;20055;-53
2021/06/27 05:23:00;;;;;;;12.60;9.95;;;;;;;21.74;69.12;99875.56;5097212;28;20063;-53
2021/06/27 05:25:26;;;;;;;15.13;9.52;;;;;;;21.96;69.25;99865.09;5096094;28;20063;-53
2021/06/27 05:27:52;;;;;;;13.25;9.80;;;;;;;22.44;68.50;99880.38;5094976;28;20060;-53
2021/06/27 05:30:18;;;;;;;18.10;10.55;;;;;;;22.82;67.11;99867.72;5095982;28;20220;-53
2021/06/27 05:32:44;;;;;;;11.20;9.25;;;;;;;22.85;66.06;99869.31;5095884;28;20432;-53
2021/06/27 05:35:09;;;;;;;11.48;9.15;;;;;;;23.00;65.75;99872.66;5095951;28;20048;-53
2021/06/27 05:37:35;;;;;;;13.20;9.55;;;;;;;23.04;65.64;99871.44;5096214;28;20036;-53
2021/06/27 05:40:02;;;;;;;10.80;9.27;;;;;;;23.03;64.46;99877.78;5096199;28;20056;-53
2021/06/27 05:42:28;;;;;;;11.63;9.30;;;;;;;23.00;64.80;99878.00;5095948;28;20044;-53
2021/06/27 05:44:54;;;;;;;12.02;9.57;;;;;;;23.00;64.53;99878.84;5096224;28;20055;-50
2021/06/27 05:47:20;;;;;;;10.48;8.23;;;;;;;23.11;65.04;99875.38;5095871;28;20044;-49
2021/06/27 05:49:45;;;;;;;13.48;8.30;;;;;;;23.38;64.44;99879.56;5095834;28;20052;-49
2021/06/27 05:52:11;;;;;;;10.18;8.50;;;;;;;23.47;63.97;99878.88;5096034;28;20073;-49
2021/06/27 05:54:37;;;;;;;10.02;8.02;;;;;;;23.75;64.06;99881.09;5096100;28;20036;-50
2021/06/27 05:57:03;;;;;;;10.25;8.93;;;;;;;24.24;63.86;99879.88;5095991;28;20051;-50
2021/06/27 05:59:29;;;;;;;9.65;8.52;;;;;;;24.70;62.28;99881.50;5078306;28;20426;-50
2021/06/27 06:01:55;;;;;;;13.20;9.27;;;;;;;24.94;62.25;99885.78;5096006;28;20073;-50
2021/06/27 06:04:20;;;;;;;9.43;8.23;;;;;;;25.35;61.12;99890.38;5095752;28;20550;-50
2021/06/27 06:06:46;;;;;;;9.23;8.13;;;;;;;25.69;58.56;99882.09;5095677;28;20109;-49
2021/06/27 06:09:12;;;;;;;11.02;6.95;;;;;;;25.80;58.37;99876.66;5096150;28;20039;-50
2021/06/27 06:11:38;;;;;;;9.02;7.30;;;;;;;26.08;57.75;99883.13;5099445;28;20066;-49
2021/06/27 06:14:04;;;;;;;6.72;5.72;;;;;;;26.32;55.81;99892.66;5099592;28;20424;-50
2021/06/27 06:16:30;;;;;;;7.78;5.40;;;;;;;26.52;53.88;99885.56;5082256;28;20117;-49
2021/06/27 06:18:55;;;;;;;5.88;5.07;;;;;;;26.61;53.51;99891.91;5099518;28;20036;-49
2021/06/27 06:21:21;;;;;;;5.53;4.97;;;;;;;26.57;53.20;99894.03;5099345;28;20086;-49
2021/06/27 06:23:47;;;;;;;6.65;5.90;;;;;;;26.54;50.96;99892.47;5099658;28;20044;-49
2021/06/27 06:26:13;;;;;;;6.38;4.90;;;;;;;26.65;50.52;99890.63;5099739;28;20374;-50
2021/06/27 06:28:39;;;;;;;4.38;4.05;;;;;;;26.56;50.15;99897.72;5099252;28;20066;-50
2021/06/27 06:31:05;;;;;;;4.40;4.00;;;;;;;26.57;49.15;99896.72;5099252;28;20040;-57
2021/06/27 06:33:31;;;;;;;5.57;3.88;;;;;;;26.74;48.46;99896.03;5099283;28;20048;-57
2021/06/27 06:35:56;;;;;;;4.13;3.53;;;;;;;27.25;48.25;99894.06;5099439;28;20098;-57
2021/06/27 06:38:22;;;;;;;4.30;3.90;;;;;;;27.63;46.51;99895.00;5098302;28;20040;-57
2021/06/27 06:40:48;;;;;;;5.10;3.53;;;;;;;27.92;44.73;99886.88;5097278;28;20081;-57
2021/06/27 06:43:14;;;;;;;5.95;3.55;;;;;;;27.94;43.56;99899.16;5097257;28;20093;-55
2021/06/27 06:45:41;;;;;;;5.70;4.25;;;;;;;27.84;43.61;99895.66;5097277;28;20055;-55
2021/06/27 06:48:07;;;;;;;4.47;3.50;;;;;;;27.77;43.41;99891.88;5097165;28;20117;-55
2021/06/27 06:50:33;;;;;;;5.40;3.45;;;;;;;27.71;44.34;99893.25;5096599;28;20048;-55
2021/06/27 06:52:58;;;;;;;3.55;3.22;;;;;;;27.66;43.90;99900.09;5097920;28;20044;-55
2021/06/27 06:55:26;;;;;;;3.65;3.00;;;;;;;27.71;43.23;99897.78;5098774;28;20052;-55
2021/06/27 06:57:52;;;;;;;6.00;3.67;;;;;;;27.73;42.62;99901.19;5097829;28;20040;-55
2021/06/27 07:00:18;;;;;;;4.43;3.65;;;;;;;27.49;43.31;99894.47;5098946;28;20127;-55
2021/06/27 07:02:44;;;;;;;6.60;3.75;;;;;;;27.32;42.89;99899.72;5098887;28;20429;-55
2021/06/27 07:05:10;;;;;;;3.88;3.13;;;;;;;27.53;43.71;99900.41;5098531;28;20043;-55
2021/06/27 07:07:36;;;;;;;5.40;2.65;;;;;;;27.97;42.58;99889.94;5098750;28;20054;-55
2021/06/27 07:10:03;;;;;;;6.65;5.97;;;;;;;28.21;40.83;99889.44;5098758;28;20344;-55
2021/06/27 07:12:29;;;;;;;4.85;4.35;;;;;;;28.48;39.89;99883.19;5099173;28;20044;-55
2021/06/27 07:14:55;;;;;;;3.45;3.13;;;;;;;28.81;38.59;99886.22;5098905;28;20399;-55
2021/06/27 07:17:21;;;;;;;5.22;2.90;;;;;;;28.94;37.18;99880.44;5098354;28;20044;-55
2021/06/27 07:19:47;;;;;;;4.18;3.22;;;;;;;29.16;36.43;99885.38;5098310;28;20044;-55
2021/06/27 07:22:12;;;;;;;3.80;2.78;;;;;;;29.15;37.94;99888.22;5098055;28;20040;-55
2021/06/27 07:24:38;;;;;;;2.63;2.30;;;;;;;29.15;37.19;99886.38;5098130;28;20105;-55
2021/06/27 07:27:05;;;;;;;8.52;2.70;;;;;;;29.05;36.51;99888.31;5098201;28;20055;-55
2021/06/27 07:29:31;;;;;;;3.78;1.90;;;;;;;29.24;36.39;99880.03;5097185;28;20457;-55
2021/06/27 07:31:57;;;;;;;3.05;1.92;;;;;;;29.27;34.94;99881.59;5097978;28;20047;-55
2021/06/27 07:34:23;;;;;;;1.80;1.70;;;;;;;29.44;34.22;99883.38;5097999;28;20040;-56
2021/06/27 07:36:49;;;;;;;2.67;1.90;;;;;;;29.82;34.81;99884.00;5097958;28;20040;-56
2021/06/27 07:39:15;;;;;;;2.13;1.80;;;;;;;30.02;34.78;99888.13;5098187;28;20044;-56
2021/06/27 07:41:41;;;;;;;4.07;2.92;;;;;;;30.25;34.33;99890.28;5080476;28;20056;-56
2021/06/27 07:44:06;;;;;;;2.92;2.25;;;;;;;30.41;35.18;99890.34;5098084;28;20443;-56
2021/06/27 07:46:32;;;;;;;2.50;2.30;;;;;;;30.47;34.08;99897.78;5097709;28;20067;-56
2021/06/27 07:48:58;;;;;;;2.30;2.03;;;;;;;30.60;33.21;99904.59;5097637;28;20055;-56
2021/06/27 07:51:24;;;;;;;1.88;1.52;;;;;;;30.77;32.57;99902.78;5097670;28;20040;-56
2021/06/27 07:53:50;;;;;;;2.15;1.50;;;;;;;31.04;32.86;99888.97;5097838;28;20352;-56
2021/06/27 07:56:16;;;;;;;2.65;1.70;;;;;;;31.26;33.22;99895.53;5097621;28;20037;-56
2021/06/27 07:58:42;;;;;;;2.20;1.75;;;;;;;31.48;32.73;99890.50;5097783;28;20105;-57
2021/06/27 08:01:07;;;;;;;1.88;1.40;;;;;;;31.49;30.77;99889.47;5097764;28;20059;-57
2021/06/27 08:03:33;;;;;;;1.60;1.50;;;;;;;31.58;31.04;99896.56;5096855;28;20390;-57
2021/06/27 08:05:59;;;;;;;4.05;1.42;;;;;;;31.54;30.58;99896.06;5096426;28;20071;-56
2021/06/27 08:08:25;;;;;;;3.33;2.13;;;;;;;31.66;30.22;99894.69;5097615;28;20055;-57
2021/06/27 08:10:51;;;;;;;3.08;2.30;;;;;;;31.70;31.42;99897.91;5096703;28;20054;-57
2021/06/27 08:13:16;;;;;;;1.70;1.60;;;;;;;31.62;31.08;99895.19;5097463;28;20059;-56
2021/06/27 08:15:42;;;;;;;2.40;2.20;;;;;;;31.78;31.35;99894.31;5097451;28;20048;-57
2021/06/27 08:18:08;;;;;;;3.03;1.10;;;;;;;31.60;30.43;99892.69;5097659;28;20174;-57
2021/06/27 08:20:34;;;;;;;2.83;1.40;;;;;;;31.19;30.45;99889.13;5097133;28;20040;-56
2021/06/27 08:23:00;;;;;;;3.85;1.80;;;;;;;31.00;30.26;99894.88;5097342;28;20064;-56
2021/06/27 08:25:26;;;;;;;2.42;1.58;;;;;;;30.99;30.90;99893.19;5079551;28;20048;-56
2021/06/27 08:27:52;;;;;;;2.83;1.58;;;;;;;31.18;30.74;99884.75;5096916;28;20064;-56
2021/06/27 08:30:18;;;;;;;3.20;2.05;;;;;;;31.45;31.44;99883.56;5096985;28;20044;-56
2021/06/27 08:32:44;;;;;;;2.10;1.65;;;;;;;31.67;30.90;99884.72;5095998;28;20043;-56
2021/06/27 08:35:12;;;;;;;3.83;2.20;;;;;;;31.76;30.79;99880.97;5096867;28;20048;-56
2021/06/27 08:37:37;;;;;;;2.22;1.60;;;;;;;31.78;32.36;99884.31;5096827;28;20036;-56
2021/06/27 08:40:04;;;;;;;2.03;1.77;;;;;;;31.93;31.45;99880.94;5096752;28;20036;-56
2021/06/27 08:42:30;;;;;;;2.13;1.92;;;;;;;31.85;31.25;99885.34;5097276;28;20075;-56
2021/06/27 08:44:55;;;;;;;3.30;2.17;;;;;;;31.58;30.56;99883.88;5096713;28;20040;-57
2021/06/27 08:47:21;;;;;;;2.25;2.00;;;;;;;31.53;30.46;99878.16;5079280;28;20070;-56
2021/06/27 08:49:48;;;;;;;4.55;1.90;;;;;;;31.53;29.54;99883.56;5095757;28;20040;-56
2021/06/27 08:52:20;;;;;;;1.85;1.75;;;;;;;31.60;29.59;99875.59;5096718;28;20044;-56
2021/06/27 08:54:47;;;;;;;2.03;1.65;;;;;;;31.74;30.14;99883.00;5096745;28;20048;-56
2021/06/27 08:57:13;;;;;;;2.20;1.80;;;;;;;31.97;30.14;99877.69;5096710;28;20052;-56
2021/06/27 08:59:39;;;;;;;1.98;1.40;;;;;;;32.13;29.90;99874.09;5096059;28;20047;-56
2021/06/27 09:02:05;;;;;;;1.60;1.50;;;;;;;32.30;29.63;99872.97;5096343;28;20444;-57
2021/06/27 09:04:33;;;;;;;2.10;1.52;;;;;;;32.51;29.72;99877.81;5096395;28;20040;-57
2021/06/27 09:07:27;;;;;;;1.70;1.42;;;;;;;32.76;29.75;99866.78;5096373;28;20036;-57
2021/06/27 09:10:16;;;;;;;2.45;1.67;;;;;;;32.81;29.12;99875.25;5095713;28;20051;-57
2021/06/27 09:12:46;;;;;;;1.65;1.30;;;;;;;32.52;29.98;99876.78;5092882;28;20055;-57
2021/06/27 09:15:13;;;;;;;1.70;1.60;;;;;;;32.32;30.38;99887.19;5096463;28;20056;-57
2021/06/27 09:17:42;;;;;;;4.78;1.73;;;;;;;32.25;29.58;99869.13;5096164;28;20051;-57
2021/06/27 09:20:09;;;;;;;2.10;1.70;;;;;;;32.29;31.27;99879.41;5061879;28;20036;-56
2021/06/27 09:22:42;;;;;;;4.88;1.90;;;;;;;32.60;29.98;99886.75;5096157;28;20044;-57
2021/06/27 09:25:21;;;;;;;4.18;1.42;;;;;;;32.75;30.43;99881.38;5096410;28;20100;-57
2021/06/27 09:28:06;;;;;;;3.45;1.80;;;;;;;32.60;29.80;99881.34;5096053;28;20059;-57
2021/06/27 09:30:51;;;;;;;1.95;1.55;;;;;;;32.48;30.20;99877.34;5096357;28;20082;-57
2021/06/27 09:33:25;;;;;;;2.17;1.73;;;;;;;32.42;30.61;99878.00;5096497;28;20044;-57
2021/06/27 09:36:01;;;;;;;2.17;1.95;;;;;;;32.50;30.67;99873.44;5096088;28;20062;-57
2021/06/27 09:38:27;;;;;;;2.90;1.60;;;;;;;32.64;30.14;99873.69;5095394;28;20143;-57
2021/06/27 09:41:01;;;;;;;3.42;1.83;;;;;;;32.81;30.28;99875.25;5095939;28;20075;-57
2021/06/27 09:43:28;;;;;;;3.65;2.03;;;;;;;32.75;29.78;99876.81;5096183;28;20344;-57
2021/06/27 09:45:56;;;;;;;2.00;1.80;;;;;;;32.57;29.82;99874.41;5098441;28;20047;-57
2021/06/27 09:48:24;;;;;;;2.05;1.80;;;;;;;32.57;29.58;99873.56;5098360;28;20325;-57
2021/06/27 09:50:50;;;;;;;2.10;1.90;;;;;;;32.73;29.85;99869.91;5098066;28;20086;-57
2021/06/27 09:53:33;;;;;;;1.75;1.63;;;;;;;32.94;28.81;99867.34;5098375;28;20040;-57
2021/06/27 09:55:59;;;;;;;2.67;2.08;;;;;;;32.78;29.25;99870.19;5098291;28;20055;-57
2021/06/27 09:58:26;;;;;;;5.93;2.38;;;;;;;32.61;29.40;99864.03;5098353;28;20051;-57
2021/06/27 10:00:51;;;;;;;4.60;1.70;;;;;;;32.33;30.11;99863.66;5098985;28;20056;-57
2021/06/27 10:03:17;;;;;;;2.67;2.10;;;;;;;32.33;29.94;99860.94;5100345;28;20048;-57
2021/06/27 10:05:43;;;;;;;2.58;1.92;;;;;;;32.35;29.74;99854.34;5100049;28;20052;-57
2021/06/27 10:08:26;;;;;;;2.53;1.80;;;;;;;32.13;30.05;99857.84;5099749;28;20044;-56
2021/06/27 10:11:16;;;;;;;1.83;1.65;;;;;;;31.79;29.92;99850.84;5099075;28;20056;-57
2021/06/27 10:13:53;;;;;;;3.42;1.92;;;;;;;31.55;30.45;99859.03;5083195;28;20048;-57
2021/06/27 10:16:28;;;;;;;2.40;2.20;;;;;;;31.61;30.64;99858.34;5066254;28;20105;-57
2021/06/27 10:18:54;;;;;;;3.25;2.38;;;;;;;31.69;30.25;99849.34;5099794;28;20062;-57
2021/06/27 10:21:20;;;;;;;4.28;1.92;;;;;;;31.80;30.21;99847.09;5098504;28;20101;-57
2021/06/27 10:23:46;;;;;;;1.52;1.42;;;;;;;32.04;30.78;99846.19;5099666;28;20048;-57
2021/06/27 10:26:14;;;;;;;2.97;2.33;;;;;;;32.16;29.76;99854.78;5099135;28;20459;-57
2021/06/27 10:28:40;;;;;;;1.80;1.65;;;;;;;32.17;29.21;99842.06;5099605;28;20052;-57
2021/06/27 10:31:05;;;;;;;2.88;1.50;;;;;;;32.03;28.22;99849.09;5099232;28;20334;-57
2021/06/27 10:33:31;;;;;;;3.47;1.50;;;;;;;31.80;27.90;99840.84;5081488;28;20143;-57
2021/06/27 10:35:57;;;;;;;1.27;1.20;;;;;;;31.54;28.35;99841.09;5098509;28;20364;-57
2021/06/27 10:38:25;;;;;;;2.72;2.05;;;;;;;31.41;29.20;99839.78;5098547;28;20130;-57
2021/06/27 10:40:51;;;;;;;2.47;1.63;;;;;;;31.60;29.88;99840.41;5098436;28;20072;-57
2021/06/27 10:43:18;;;;;;;1.60;1.50;;;;;;;31.86;29.64;99832.03;5099296;28;20044;-57
2021/06/27 10:45:46;;;;;;;1.52;1.40;;;;;;;32.11;29.08;99830.09;5099009;28;20044;-57
2021/06/27 10:48:35;;;;;;;1.45;1.35;;;;;;;32.24;27.95;99824.94;5099202;28;20048;-58
2021/06/27 10:51:09;;;;;;;1.83;1.50;;;;;;;32.29;28.62;99821.69;5099191;28;20043;-57
2021/06/27 10:54:12;;;;;;;1.67;1.58;;;;;;;32.01;29.11;99834.88;5098336;28;20090;-57
2021/06/27 10:57:02;;;;;;;2.05;1.63;;;;;;;32.07;28.47;99823.31;5098184;28;20124;-57
2021/06/27 10:59:51;;;;;;;2.45;1.90;;;;;;;31.98;27.64;99824.38;5099086;28;20040;-57
2021/06/27 11:02:31;;;;;;;1.60;1.45;;;;;;;31.90;29.05;99827.97;5099001;28;20051;-57
2021/06/27 11:05:17;;;;;;;2.15;1.30;;;;;;;32.10;29.29;99823.81;5098888;28;20075;-57
2021/06/27 11:07:43;;;;;;;2.45;1.25;;;;;;;32.31;28.30;99815.09;5083654;28;20093;-57
2021/06/27 11:10:20;;;;;;;2.65;1.63;;;;;;;32.53;27.74;99815.28;5098786;28;20048;-57
2021/06/27 11:12:58;;;;;;;1.60;1.50;;;;;;;32.67;28.31;99813.69;5098676;28;20135;-58
2021/06/27 11:15:25;;;;;;;1.88;1.48;;;;;;;32.78;29.31;99816.78;5098406;28;20458;-57
2021/06/27 11:17:51;;;;;;;2.10;1.40;;;;;;;32.86;28.85;99812.31;5098326;28;20444;-58
2021/06/27 11:20:17;;;;;;;2.03;1.33;;;;;;;32.74;27.17;99817.34;5098575;28;20058;-57
2021/06/27 11:22:47;;;;;;;1.80;1.70;;;;;;;32.79;27.66;99821.22;5097433;28;20052;-57
2021/06/27 11:25:38;;;;;;;3.45;1.42;;;;;;;32.93;27.43;99827.69;5098157;28;20433;-66